Time;durP1;ratioP1;P1;durP2;ratioP2;P2;SDS_P1;SDS_P2;PMS_P1;PMS_P2;Temp;Humidity;BMP_temperature;BMP_pressure;BME280_temperature;BME280_humidity;BME280_pressure;Samples;Min_cycle;Max_cycle;Signal;HPM_P1;HPM_P2
2021/09/19 00:04:53;;;;;;;8.77;2.67;;;12.70;1.00;;;;;;5017278;28;20450;-77
2021/09/19 00:07:23;;;;;;;7.70;3.13;;;12.60;1.00;;;;;;5017665;28;20386;-77
2021/09/19 00:09:59;;;;;;;7.33;3.40;;;12.60;1.00;;;;;;5030688;28;20953;-77
2021/09/19 00:12:29;;;;;;;3.10;2.90;;;12.60;1.00;;;;;;5022414;28;20463;-77
2021/09/19 00:15:15;;;;;;;4.50;2.30;;;12.60;1.00;;;;;;5037188;28;20957;-77
2021/09/19 00:17:53;;;;;;;4.03;2.80;;;12.50;1.00;;;;;;5036751;28;20418;-77
2021/09/19 00:20:35;;;;;;;3.60;3.20;;;12.50;1.00;;;;;;5036996;28;20557;-77
2021/09/19 00:23:09;;;;;;;7.23;2.80;;;12.50;1.00;;;;;;5037299;28;20362;-77
2021/09/19 00:25:47;;;;;;;6.13;2.80;;;12.50;1.00;;;;;;5037226;28;20461;-77
2021/09/19 00:28:13;;;;;;;4.27;2.33;;;12.50;1.00;;;;;;5036807;28;20789;-76
2021/09/19 00:34:00;;;;;;;2.70;2.50;;;12.50;1.00;;;;;;5019226;28;20419;-77
2021/09/19 00:39:53;;;;;;;10.03;3.00;;;12.40;1.00;;;;;;5036633;28;20183;-77
2021/09/19 00:42:19;;;;;;;3.10;2.80;;;12.40;1.00;;;;;;5035379;28;20734;-78
2021/09/19 00:44:45;;;;;;;4.20;2.80;;;12.30;1.00;;;;;;5035361;28;20408;-77
2021/09/19 00:47:11;;;;;;;3.07;2.77;;;;;;;;;;5025455;28;20455;-77
2021/09/19 00:49:37;;;;;;;4.70;2.70;;;12.30;1.00;;;;;;5016077;28;20165;-77
2021/09/19 00:52:04;;;;;;;3.43;2.50;;;12.30;1.00;;;;;;5034990;28;20393;-78
2021/09/19 00:54:41;;;;;;;6.43;2.83;;;12.30;1.00;;;;;;5035450;28;20406;-77
2021/09/19 00:57:08;;;;;;;9.33;3.27;;;12.30;1.00;;;;;;5026976;28;20424;-77
2021/09/19 00:59:41;;;;;;;3.00;2.80;;;12.30;1.00;;;;;;5027305;28;20927;-77
2021/09/19 01:02:23;;;;;;;5.70;3.13;;;12.30;1.00;;;;;;5022364;28;20501;-77
2021/09/19 01:05:29;;;;;;;3.63;2.83;;;12.30;1.00;;;;;;5035873;28;20417;-76
2021/09/19 01:08:15;;;;;;;7.80;2.87;;;12.30;1.00;;;;;;5031864;28;20443;-77
2021/09/19 01:10:59;;;;;;;4.97;2.83;;;12.30;1.00;;;;;;5022377;28;20401;-78
2021/09/19 01:16:48;;;;;;;6.13;3.10;;;12.20;1.00;;;;;;5035446;28;20914;-77
2021/09/19 01:19:22;;;;;;;13.40;3.20;;;12.20;1.00;;;;;;5035632;28;20391;-77
2021/09/19 01:21:48;;;;;;;5.87;2.30;;;12.20;1.00;;;;;;5036252;28;20413;-77
2021/09/19 01:24:18;;;;;;;2.90;2.70;;;12.20;1.00;;;;;;5034229;28;20403;-77
2021/09/19 01:26:59;;;;;;;3.67;2.73;;;12.20;1.00;;;;;;5030226;28;20466;-77
2021/09/19 01:29:25;;;;;;;2.90;2.60;;;12.20;1.00;;;;;;5033287;28;20422;-77
2021/09/19 01:32:05;;;;;;;4.13;2.90;;;12.10;1.00;;;;;;5035384;28;20461;-77
2021/09/19 01:34:35;;;;;;;2.57;2.37;;;12.20;1.00;;;;;;5035770;28;20207;-77
2021/09/19 01:37:01;;;;;;;4.83;2.97;;;12.20;1.00;;;;;;5035679;28;20418;-77
2021/09/19 01:42:48;;;;;;;2.90;2.60;;;12.10;1.00;;;;;;5035074;28;20191;-77
2021/09/19 01:45:24;;;;;;;2.80;2.60;;;12.10;1.00;;;;;;5035369;28;20854;-77
2021/09/19 01:47:54;;;;;;;3.43;3.13;;;12.10;1.00;;;;;;5035376;28;20149;-77
2021/09/19 01:50:26;;;;;;;4.77;2.67;;;12.10;1.00;;;;;;5035780;28;20391;-77
2021/09/19 01:53:19;;;;;;;9.80;2.87;;;12.00;1.00;;;;;;5035594;28;20517;-77
2021/09/19 01:56:11;;;;;;;3.23;2.67;;;12.10;1.00;;;;;;5035046;28;20453;-77
2021/09/19 02:01:58;;;;;;;4.47;2.43;;;12.00;1.00;;;;;;5034782;28;20398;-77
2021/09/19 02:04:31;;;;;;;4.97;2.50;;;12.00;1.00;;;;;;5034016;28;20395;-77
2021/09/19 02:07:53;;;;;;;9.27;2.57;;;12.00;1.00;;;;;;5035503;28;20180;-77
2021/09/19 02:10:41;;;;;;;10.63;2.47;;;12.00;1.00;;;;;;5020543;28;20434;-77
2021/09/19 02:13:11;;;;;;;4.03;2.70;;;11.90;1.00;;;;;;5014079;28;20443;-77
2021/09/19 02:15:59;;;;;;;3.07;2.77;;;12.00;1.00;;;;;;5015700;28;20479;-77
2021/09/19 02:21:29;;;;;;;4.17;2.73;;;11.90;1.00;;;;;;5026486;28;20764;-77
2021/09/19 02:23:59;;;;;;;5.43;3.70;;;11.90;1.00;;;;;;5034948;28;20396;-77
2021/09/19 02:26:59;;;;;;;7.70;3.40;;;11.90;1.00;;;;;;5025896;28;20211;-77
2021/09/19 02:33:11;;;;;;;7.30;3.20;;;11.90;1.00;;;;;;5034060;28;20740;-77
2021/09/19 02:36:17;;;;;;;8.73;3.10;;;11.90;1.00;;;;;;5034315;28;20395;-77
2021/09/19 02:38:47;;;;;;;5.40;3.30;;;11.90;1.00;;;;;;5034460;28;20509;-76
2021/09/19 02:41:17;;;;;;;6.07;2.77;;;11.80;1.00;;;;;;5034498;28;20482;-76
2021/09/19 02:44:17;;;;;;;4.10;3.10;;;11.90;1.00;;;;;;5034259;28;20438;-76
2021/09/19 02:50:47;;;;;;;5.90;3.20;;;11.90;1.00;;;;;;5023222;28;20414;-77
2021/09/19 02:53:53;;;;;;;5.50;3.33;;;11.90;1.00;;;;;;5013851;28;20812;-76
2021/09/19 03:00:13;;;;;;;4.00;2.67;;;11.90;1.00;;;;;;5014459;28;20458;-76
2021/09/19 03:02:42;;;;;;;4.37;2.80;;;11.90;1.00;;;;;;5014058;28;20403;-77
2021/09/19 03:08:35;;;;;;;4.80;2.90;;;11.90;1.00;;;;;;5014180;28;20403;-77
2021/09/19 03:11:05;;;;;;;3.53;3.17;;;11.90;1.00;;;;;;5029727;28;20457;-78
2021/09/19 03:13:31;;;;;;;5.90;2.80;;;11.90;1.00;;;;;;5033646;28;20445;-77
2021/09/19 03:16:41;;;;;;;4.40;2.93;;;11.90;1.00;;;;;;5033701;28;20450;-77
2021/09/19 03:19:06;;;;;;;5.17;2.80;;;11.90;1.00;;;;;;5032571;28;20176;-77
2021/09/19 03:21:32;;;;;;;6.50;3.30;;;11.90;1.00;;;;;;5032681;28;20411;-77
2021/09/19 03:27:59;;;;;;;4.20;3.17;;;11.90;1.00;;;;;;5023463;28;20202;-77
2021/09/19 03:30:29;;;;;;;4.20;3.07;;;11.90;1.00;;;;;;5019619;28;20430;-77
2021/09/19 03:33:29;;;;;;;3.40;3.10;;;11.80;1.00;;;;;;5016886;28;20454;-77
2021/09/19 03:35:55;;;;;;;6.53;3.07;;;11.80;1.00;;;;;;5026908;28;20457;-77
2021/09/19 03:38:23;;;;;;;6.80;3.07;;;11.90;1.00;;;;;;5033924;28;20697;-77
2021/09/19 03:40:53;;;;;;;3.50;2.60;;;12.00;1.00;;;;;;5033620;28;20519;-77
2021/09/19 03:43:47;;;;;;;4.20;2.77;;;11.80;1.00;;;;;;5034022;28;20391;-77
2021/09/19 03:46:17;;;;;;;3.20;2.83;;;11.80;1.00;;;;;;5033649;28;20418;-77
2021/09/19 03:48:43;;;;;;;3.33;3.03;;;11.80;1.00;;;;;;5033843;28;20454;-78
2021/09/19 03:51:11;;;;;;;3.80;3.40;;;11.90;1.00;;;;;;5033427;28;20411;-77
2021/09/19 03:53:48;;;;;;;6.27;3.00;;;11.80;1.00;;;;;;5034450;28;20195;-77
2021/09/19 03:56:35;;;;;;;4.50;3.07;;;11.80;1.00;;;;;;5026638;28;20462;-77
2021/09/19 03:59:11;;;;;;;4.23;3.33;;;11.80;1.00;;;;;;5014344;28;20367;-77
2021/09/19 04:02:05;;;;;;;3.40;3.10;;;11.90;1.00;;;;;;5024338;28;20395;-77
2021/09/19 04:11:14;;;;;;;4.33;3.67;;;11.80;1.00;;;;;;5032802;28;20492;-77
2021/09/19 04:13:47;;;;;;;4.27;3.60;;;11.80;1.00;;;;;;5032480;28;20455;-77
2021/09/19 04:16:59;;;;;;;6.83;3.30;;;11.80;1.00;;;;;;5032968;28;20211;-78
2021/09/19 04:23:11;;;;;;;7.17;3.40;;;11.80;1.00;;;;;;5033315;28;20880;-77
2021/09/19 04:26:29;;;;;;;9.47;4.00;;;11.80;1.00;;;;;;5025270;28;20434;-76
2021/09/19 04:29:05;;;;;;;5.40;3.90;;;11.80;1.00;;;;;;5031504;28;20464;-76
2021/09/19 04:31:47;;;;;;;4.80;3.37;;;11.70;1.00;;;;;;5017017;28;20484;-77
2021/09/19 04:34:23;;;;;;;6.17;3.40;;;11.80;1.00;;;;;;5030249;28;20772;-77
2021/09/19 04:36:49;;;;;;;3.70;3.30;;;11.80;1.00;;;;;;5034586;28;20446;-77
2021/09/19 04:46:47;;;;;;;4.60;3.40;;;11.70;1.00;;;;;;5016896;28;20459;-75
2021/09/19 04:49:17;;;;;;;4.13;3.73;;;11.70;1.00;;;;;;5016833;28;20403;-76
2021/09/19 04:51:53;;;;;;;4.23;3.40;;;11.70;1.00;;;;;;5016266;28;20882;-77
2021/09/19 04:57:53;;;;;;;3.23;2.93;;;11.70;1.00;;;;;;5035620;28;20433;-77
2021/09/19 05:00:59;;;;;;;3.33;2.93;;;11.70;1.00;;;;;;5021751;28;20538;-77
2021/09/19 05:03:25;;;;;;;3.93;3.13;;;11.60;1.00;;;;;;5023338;28;20461;-77
2021/09/19 05:09:35;;;;;;;4.77;3.17;;;11.50;1.00;;;;;;5035653;28;20238;-77
2021/09/19 05:12:00;;;;;;;4.30;3.00;;;11.50;1.00;;;;;;5035813;28;20413;-77
2021/09/19 05:17:48;;;;;;;6.60;3.47;;;11.50;1.00;;;;;;5035849;28;20191;-77
2021/09/19 05:20:35;;;;;;;6.80;3.33;;;11.40;1.00;;;;;;5035359;28;20502;-77
2021/09/19 05:23:35;;;;;;;4.80;3.23;;;11.50;1.00;;;;;;5016101;28;20188;-77
2021/09/19 05:26:01;;;;;;;7.17;3.60;;;11.40;1.00;;;;;;5016145;28;20734;-77
2021/09/19 05:29:11;;;;;;;5.00;3.50;;;11.40;1.00;;;;;;5015878;28;20385;-77
2021/09/19 05:31:53;;;;;;;13.20;3.77;;;11.40;1.00;;;;;;5023212;28;20899;-77
2021/09/19 05:35:05;;;;;;;4.67;3.27;;;11.40;1.00;;;;;;5026923;28;20407;-77
2021/09/19 05:37:31;;;;;;;7.40;3.90;;;11.40;1.00;;;;;;5035346;28;20441;-78
2021/09/19 05:40:13;;;;;;;15.10;3.97;;;11.40;1.00;;;;;;5035508;28;20412;-77
2021/09/19 05:43:01;;;;;;;4.33;3.37;;;11.40;1.00;;;;;;5035517;28;20389;-77
2021/09/19 05:46:18;;;;;;;3.53;3.23;;;11.40;1.00;;;;;;5035318;28;20870;-77
2021/09/19 05:49:23;;;;;;;4.13;3.03;;;11.40;1.00;;;;;;5015833;28;20388;-77
2021/09/19 05:52:11;;;;;;;3.17;2.70;;;11.40;1.00;;;;;;5032414;28;20470;-77
2021/09/19 05:55:11;;;;;;;5.73;3.70;;;11.40;1.00;;;;;;5015899;28;20435;-77
2021/09/19 05:57:42;;;;;;;4.80;3.00;;;11.40;1.00;;;;;;5015137;28;20483;-77
2021/09/19 06:00:23;;;;;;;4.43;3.13;;;11.50;1.00;;;;;;5025740;28;20419;-77
2021/09/19 06:03:11;;;;;;;4.43;3.70;;;11.50;1.00;;;;;;5017588;28;20408;-77
2021/09/19 06:05:48;;;;;;;5.97;3.30;;;;;;;;;;5035214;28;20394;-76
2021/09/19 06:08:17;;;;;;;12.03;3.97;;;11.60;1.00;;;;;;5023520;28;20395;-77
2021/09/19 06:10:48;;;;;;;13.00;4.60;;;;;;;;;;5031673;28;20429;-77
2021/09/19 06:13:59;;;;;;;3.50;3.10;;;11.70;1.00;;;;;;5014897;28;20427;-77
2021/09/19 06:16:36;;;;;;;3.93;3.40;;;11.80;1.00;;;;;;5017018;28;20551;-77
2021/09/19 06:19:11;;;;;;;6.13;4.60;;;11.90;1.00;;;;;;5017831;28;20492;-77
2021/09/19 06:22:01;;;;;;;10.57;4.30;;;12.00;1.00;;;;;;5033102;28;20418;-77
2021/09/19 06:24:59;;;;;;;9.37;5.90;;;12.10;1.00;;;;;;5034016;28;20419;-77
2021/09/19 06:27:25;;;;;;;9.10;5.30;;;12.20;1.00;;;;;;5033420;28;20571;-77
2021/09/19 06:29:54;;;;;;;17.80;5.37;;;12.30;1.00;;;;;;5033141;28;20453;-77
2021/09/19 06:35:42;;;;;;;14.63;5.17;;;12.50;1.00;;;;;;5032042;28;20521;-77
2021/09/19 06:41:35;;;;;;;8.17;4.93;;;12.70;1.00;;;;;;5031822;28;20428;-77
2021/09/19 06:47:23;;;;;;;8.03;5.20;;;13.00;1.00;;;;;;5030513;28;20875;-78
2021/09/19 06:49:59;;;;;;;6.57;4.60;;;13.00;1.00;;;;;;5033748;28;20427;-77
2021/09/19 06:55:47;;;;;;;4.47;3.90;;;13.30;1.00;;;;;;5014607;28;20472;-77
2021/09/19 06:58:12;;;;;;;6.13;4.20;;;13.40;1.00;;;;;;5014450;28;20404;-77
2021/09/19 07:00:38;;;;;;;4.60;3.27;;;13.40;1.00;;;;;;5032177;28;20161;-77
2021/09/19 07:06:25;;;;;;;5.37;3.90;;;13.60;1.00;;;;;;5033746;28;20175;-77
2021/09/19 07:09:05;;;;;;;3.60;3.10;;;13.70;1.00;;;;;;5033818;28;20411;-76
2021/09/19 07:11:31;;;;;;;3.73;3.33;;;13.80;1.00;;;;;;5034096;28;20165;-76
2021/09/19 07:14:05;;;;;;;5.43;3.63;;;14.00;1.00;;;;;;5033184;28;20888;-77
2021/09/19 07:16:35;;;;;;;4.30;3.57;;;14.00;1.00;;;;;;5014160;28;20501;-76
2021/09/19 07:19:29;;;;;;;5.73;4.17;;;14.10;1.00;;;;;;5013884;28;20390;-76
2021/09/19 07:21:55;;;;;;;3.93;3.53;;;14.30;1.00;;;;;;5020711;28;20429;-76
2021/09/19 07:24:39;;;;;;;5.50;3.10;;;14.30;1.00;;;;;;5033787;28;20799;-77
2021/09/19 07:27:47;;;;;;;3.07;2.87;;;14.40;1.00;;;;;;5033739;28;20639;-78
2021/09/19 07:30:23;;;;;;;5.47;4.10;;;14.60;1.00;;;;;;5033347;28;20377;-77
2021/09/19 07:32:54;;;;;;;4.90;3.67;;;14.70;1.00;;;;;;5033442;28;20399;-77
2021/09/19 07:35:23;;;;;;;3.77;3.33;;;14.80;1.00;;;;;;5033296;28;20766;-77
2021/09/19 07:38:00;;;;;;;6.70;3.70;;;14.80;1.00;;;;;;5024992;28;20493;-77
2021/09/19 07:40:26;;;;;;;6.60;3.60;;;14.90;1.00;;;;;;5013788;28;20457;-76
2021/09/19 07:46:15;;;;;;;4.50;3.10;;;15.10;1.00;;;;;;5020382;28;20460;-75
2021/09/19 07:48:41;;;;;;;6.97;3.60;;;15.20;1.00;;;;;;5033256;28;20423;-82
2021/09/19 07:51:07;;;;;;;5.60;3.20;;;15.20;1.00;;;;;;5032265;28;20446;-77
2021/09/19 07:54:11;;;;;;;3.60;3.30;;;15.30;1.00;;;;;;5033534;28;20185;-76
2021/09/19 07:56:41;;;;;;;4.63;3.60;;;15.30;1.00;;;;;;5033533;28;20951;-76
2021/09/19 07:59:17;;;;;;;5.90;4.23;;;15.40;1.00;;;;;;5033385;28;20366;-76
2021/09/19 08:01:47;;;;;;;3.60;3.30;;;15.50;1.00;;;;;;5035498;28;20377;-76
2021/09/19 08:04:13;;;;;;;4.80;3.43;;;15.50;1.00;;;;;;5037440;28;20377;-76
2021/09/19 08:06:47;;;;;;;5.30;3.13;;;15.60;1.00;;;;;;5037162;28;20471;-77
2021/09/19 08:09:23;;;;;;;5.17;3.47;;;15.70;1.00;;;;;;5032398;28;20641;-76
2021/09/19 08:11:49;;;;;;;4.00;3.50;;;15.70;1.00;;;;;;5037376;28;20431;-76
2021/09/19 08:14:15;;;;;;;3.50;3.00;;;15.90;1.00;;;;;;5033116;28;20402;-76
2021/09/19 08:16:42;;;;;;;7.60;2.80;;;15.90;1.00;;;;;;5017514;28;20247;-76
2021/09/19 08:19:11;;;;;;;3.83;3.53;;;16.10;1.00;;;;;;5031488;28;20518;-76
2021/09/19 08:22:29;;;;;;;8.33;3.47;;;16.20;1.00;;;;;;5028296;28;20398;-76
2021/09/19 08:24:55;;;;;;;3.40;3.10;;;16.40;1.00;;;;;;5017393;28;20403;-76
2021/09/19 08:27:20;;;;;;;3.90;3.50;;;16.50;1.00;;;;;;5016957;28;20407;-76
2021/09/19 08:29:47;;;;;;;4.20;3.37;;;16.50;1.00;;;;;;5017192;28;20161;-76
2021/09/19 08:32:41;;;;;;;4.33;3.80;;;16.80;1.00;;;;;;5016811;28;20228;-76
2021/09/19 08:35:17;;;;;;;4.23;3.83;;;16.90;1.00;;;;;;5034937;28;20752;-76
2021/09/19 08:37:54;;;;;;;5.47;3.20;;;;;;;;;;5027983;28;20421;-76
2021/09/19 08:40:23;;;;;;;6.80;3.17;;;16.90;1.00;;;;;;5033059;28;20402;-76
2021/09/19 08:43:00;;;;;;;4.13;3.23;;;;;;;;;;5029110;28;20449;-76
2021/09/19 08:45:26;;;;;;;3.87;3.47;;;17.10;1.00;;;;;;5033639;28;20420;-77
2021/09/19 08:48:23;;;;;;;5.37;3.47;;;17.10;1.00;;;;;;5028354;28;20399;-78
2021/09/19 08:50:52;;;;;;;4.00;3.47;;;17.10;1.00;;;;;;5024844;28;20264;-76
2021/09/19 08:53:25;;;;;;;4.07;3.53;;;17.20;1.00;;;;;;5035047;28;20416;-76
2021/09/19 08:55:53;;;;;;;3.53;3.00;;;17.30;1.00;;;;;;5036314;28;20426;-76
2021/09/19 08:58:19;;;;;;;7.33;3.47;;;17.30;1.00;;;;;;5036307;28;20375;-76
2021/09/19 09:00:49;;;;;;;4.97;3.80;;;17.30;1.00;;;;;;5035560;28;20741;-75
2021/09/19 09:03:23;;;;;;;7.37;4.23;;;17.40;1.00;;;;;;5035472;28;20155;-77
2021/09/19 09:05:56;;;;;;;4.17;3.50;;;17.40;1.00;;;;;;5035590;28;20875;-78
2021/09/19 09:08:32;;;;;;;4.43;3.63;;;17.40;1.00;;;;;;5035789;28;20413;-76
2021/09/19 09:11:29;;;;;;;3.50;3.20;;;17.40;1.00;;;;;;5036267;28;20376;-79
2021/09/19 09:14:02;;;;;;;6.20;4.00;;;;;;;;;;5034956;28;20440;-79
2021/09/19 09:17:11;;;;;;;4.80;3.57;;;17.50;1.00;;;;;;5035450;28;20425;-81
2021/09/19 09:19:41;;;;;;;3.70;3.23;;;17.60;1.00;;;;;;5035815;28;20442;-81
2021/09/19 09:22:12;;;;;;;3.33;3.03;;;17.60;1.00;;;;;;5035656;28;20447;-81
2021/09/19 09:25:16;;;;;;;3.83;3.43;;;17.70;1.00;;;;;;5035554;28;20456;-76
2021/09/19 09:27:59;;;;;;;2.87;2.67;;;17.80;1.00;;;;;;5033603;28;20456;-76
2021/09/19 09:30:25;;;;;;;5.50;3.10;;;17.80;1.00;;;;;;5033501;28;20491;-76
2021/09/19 09:33:00;;;;;;;3.40;3.10;;;17.90;1.00;;;;;;5033138;28;20962;-76
2021/09/19 09:35:53;;;;;;;5.47;3.47;;;18.00;1.00;;;;;;5027297;28;20406;-76
2021/09/19 09:38:41;;;;;;;3.37;2.63;;;18.20;1.00;;;;;;5031676;28;20409;-77
2021/09/19 09:41:40;;;;;;;3.10;2.80;;;18.30;1.00;;;;;;5013858;28;20442;-77
2021/09/19 09:44:24;;;;;;;3.40;2.60;;;;;;;;;;5033066;28;20404;-77
2021/09/19 09:46:50;;;;;;;2.93;2.67;;;18.50;1.00;;;;;;5023039;28;20444;-77
2021/09/19 09:50:11;;;;;;;2.87;2.40;;;18.90;1.00;;;;;;5032619;28;20519;-77
2021/09/19 09:52:37;;;;;;;3.03;2.80;;;19.10;1.00;;;;;;5033142;28;20432;-77
2021/09/19 09:55:12;;;;;;;2.80;2.60;;;19.30;1.00;;;;;;5032426;28;20438;-76
2021/09/19 09:57:50;;;;;;;4.60;3.27;;;19.40;1.00;;;;;;5025290;28;20454;-77
2021/09/19 10:00:18;;;;;;;4.00;3.10;;;19.40;1.00;;;;;;5017424;28;20840;-76
2021/09/19 10:03:06;;;;;;;5.47;3.60;;;19.60;1.00;;;;;;5016621;28;20447;-77
2021/09/19 10:05:35;;;;;;;4.07;3.67;;;19.60;1.00;;;;;;5035165;28;20396;-77
2021/09/19 10:08:02;;;;;;;3.40;2.90;;;19.80;1.00;;;;;;5035033;28;20407;-76
2021/09/19 10:10:33;;;;;;;3.17;2.87;;;19.80;1.00;;;;;;5034762;28;20451;-76
2021/09/19 10:12:59;;;;;;;3.13;2.83;;;20.00;1.00;;;;;;5035271;28;20494;-77
2021/09/19 10:15:26;;;;;;;6.40;3.00;;;20.00;1.00;;;;;;5034362;28;20418;-76
2021/09/19 10:17:55;;;;;;;3.20;2.90;;;20.10;1.00;;;;;;5028097;28;20425;-76
2021/09/19 10:20:37;;;;;;;3.23;2.37;;;20.20;1.00;;;;;;5031911;28;20407;-76
2021/09/19 10:23:17;;;;;;;3.33;3.03;;;20.20;1.00;;;;;;5027903;28;20410;-76
2021/09/19 10:25:50;;;;;;;2.67;2.47;;;20.30;1.00;;;;;;5030595;28;20463;-76
2021/09/19 10:28:35;;;;;;;2.60;2.40;;;20.40;1.00;;;;;;5030739;28;20436;-76
2021/09/19 10:31:11;;;;;;;2.73;2.53;;;20.40;1.00;;;;;;5023504;28;20420;-76
2021/09/19 10:34:23;;;;;;;2.93;2.50;;;20.30;1.00;;;;;;5026611;28;20420;-76
2021/09/19 10:36:56;;;;;;;3.10;2.83;;;20.20;1.00;;;;;;5031087;28;20461;-76
2021/09/19 10:39:38;;;;;;;6.17;3.10;;;20.30;1.00;;;;;;5014401;28;20508;-76
2021/09/19 10:42:39;;;;;;;3.50;3.20;;;20.00;1.00;;;;;;5014682;28;20389;-76
2021/09/19 10:45:43;;;;;;;3.33;2.77;;;20.00;1.00;;;;;;5015130;28;20456;-77
2021/09/19 10:48:35;;;;;;;3.40;3.03;;;19.70;1.00;;;;;;5014634;28;20418;-76
2021/09/19 10:51:17;;;;;;;3.47;3.00;;;19.70;1.00;;;;;;5014534;28;20757;-76
2021/09/19 10:53:47;;;;;;;3.43;3.10;;;19.70;1.00;;;;;;5014419;28;20446;-76
2021/09/19 10:56:55;;;;;;;3.87;3.07;;;19.60;1.00;;;;;;5014387;28;20859;-76
2021/09/19 10:59:28;;;;;;;3.20;2.90;;;19.50;1.00;;;;;;5014743;28;20400;-76
2021/09/19 11:02:04;;;;;;;5.40;3.83;;;19.50;1.00;;;;;;5014431;28;20472;-76
2021/09/19 11:04:35;;;;;;;2.90;2.70;;;19.60;1.00;;;;;;5014257;28;20395;-76
2021/09/19 11:07:18;;;;;;;4.07;3.10;;;19.90;1.00;;;;;;5014316;28;20428;-76
2021/09/19 11:09:44;;;;;;;2.97;2.70;;;20.00;1.00;;;;;;5014264;28;20396;-76
2021/09/19 11:12:11;;;;;;;3.40;3.10;;;20.30;1.00;;;;;;5014030;28;20437;-76
2021/09/19 11:15:06;;;;;;;4.03;3.20;;;20.40;1.00;;;;;;5014704;28;20389;-76
2021/09/19 11:17:48;;;;;;;3.57;3.00;;;20.70;1.00;;;;;;5012909;28;20465;-76
2021/09/19 11:20:17;;;;;;;4.20;3.00;;;20.90;1.00;;;;;;5025570;28;20854;-76
2021/09/19 11:22:51;;;;;;;3.73;3.43;;;20.90;1.00;;;;;;5033733;28;20901;-76
2021/09/19 11:25:19;;;;;;;4.73;3.13;;;21.20;1.00;;;;;;5033831;28;20459;-76
2021/09/19 11:27:47;;;;;;;3.50;3.20;;;21.50;1.00;;;;;;5033644;28;20417;-76
2021/09/19 11:30:18;;;;;;;3.47;3.27;;;21.50;1.00;;;;;;5030573;28;20480;-76
2021/09/19 11:32:48;;;;;;;3.50;3.20;;;21.80;1.00;;;;;;5018561;28;20510;-77
2021/09/19 11:35:18;;;;;;;3.80;3.40;;;22.00;1.00;;;;;;5033649;28;20407;-76
2021/09/19 11:38:11;;;;;;;3.10;2.80;;;22.20;1.00;;;;;;5026716;28;20460;-76
2021/09/19 11:40:37;;;;;;;3.57;3.20;;;;;;;;;;5018001;28;20395;-76
2021/09/19 11:43:13;;;;;;;3.60;3.07;;;22.40;1.00;;;;;;5017944;28;20416;-76
2021/09/19 11:45:39;;;;;;;3.63;3.33;;;;;;;;;;5034487;28;20749;-76
2021/09/19 11:48:08;;;;;;;4.40;3.10;;;22.40;1.00;;;;;;5036323;28;20495;-76
2021/09/19 11:50:37;;;;;;;5.13;3.20;;;22.50;1.00;;;;;;5017849;28;20476;-76
2021/09/19 11:53:11;;;;;;;3.90;2.77;;;22.40;1.00;;;;;;5017940;28;20422;-76
2021/09/19 11:55:47;;;;;;;3.43;3.13;;;22.50;1.00;;;;;;5019206;28;20395;-76
2021/09/19 11:58:24;;;;;;;3.17;2.97;;;22.50;1.00;;;;;;5037409;28;20400;-76
2021/09/19 12:00:54;;;;;;;3.50;3.20;;;22.50;1.00;;;;;;5037438;28;20400;-76
2021/09/19 12:03:24;;;;;;;2.77;2.57;;;22.70;1.00;;;;;;5026361;28;20421;-76
2021/09/19 12:06:03;;;;;;;3.47;3.27;;;22.70;1.00;;;;;;5017354;28;20408;-76
2021/09/19 12:08:35;;;;;;;6.03;2.87;;;22.90;1.00;;;;;;5017227;28;20419;-76
2021/09/19 12:11:17;;;;;;;3.60;3.30;;;22.90;1.00;;;;;;5021122;28;20459;-76
2021/09/19 12:13:53;;;;;;;3.53;3.23;;;23.10;1.00;;;;;;5017239;28;20438;-76
2021/09/19 12:16:24;;;;;;;3.53;3.23;;;23.00;1.00;;;;;;5019551;28;20535;-77
2021/09/19 12:18:50;;;;;;;3.70;3.40;;;23.10;1.00;;;;;;5017455;28;20718;-77
2021/09/19 12:21:22;;;;;;;3.53;3.00;;;23.20;1.00;;;;;;5035126;28;20817;-76
2021/09/19 12:23:56;;;;;;;3.33;3.07;;;23.20;1.00;;;;;;5037419;28;20408;-76
2021/09/19 12:26:32;;;;;;;2.97;2.77;;;23.20;1.00;;;;;;5033716;28;20417;-76
2021/09/19 12:29:03;;;;;;;3.40;3.10;;;23.10;1.00;;;;;;5019234;28;20796;-76
2021/09/19 12:31:50;;;;;;;3.73;3.43;;;23.00;1.00;;;;;;5028184;28;20410;-76
2021/09/19 12:34:29;;;;;;;40.03;9.93;;;22.80;1.00;;;;;;5032986;28;20414;-75
2021/09/19 12:37:00;;;;;;;4.20;3.23;;;22.90;1.00;;;;;;5036071;28;20975;-76
2021/09/19 12:39:43;;;;;;;4.70;3.40;;;22.90;1.00;;;;;;5036633;28;20476;-76
2021/09/19 12:42:08;;;;;;;5.33;3.50;;;23.00;1.00;;;;;;5036669;28;20863;-76
2021/09/19 12:44:47;;;;;;;3.07;2.83;;;22.90;1.00;;;;;;5036667;28;20392;-76
2021/09/19 12:47:37;;;;;;;3.67;3.37;;;22.90;1.00;;;;;;5036041;28;20297;-76
2021/09/19 12:50:13;;;;;;;6.27;3.20;;;22.80;1.00;;;;;;5036527;28;20404;-76
2021/09/19 12:52:42;;;;;;;4.77;3.53;;;;;;;;;;5036551;28;20511;-76
2021/09/19 12:55:15;;;;;;;3.43;3.13;;;22.90;1.00;;;;;;5036325;28;20478;-76
2021/09/19 12:57:41;;;;;;;3.10;2.80;;;22.80;1.00;;;;;;5031266;28;20453;-75
2021/09/19 13:00:07;;;;;;;3.30;3.00;;;22.80;1.00;;;;;;5016278;28;20484;-75
2021/09/19 13:02:56;;;;;;;3.17;2.83;;;22.70;1.00;;;;;;5022545;28;20706;-76
2021/09/19 13:05:30;;;;;;;3.50;3.20;;;22.60;1.00;;;;;;5036366;28;20396;-76
2021/09/19 13:08:01;;;;;;;2.83;2.60;;;22.50;1.00;;;;;;5031791;28;20433;-77
2021/09/19 13:10:35;;;;;;;3.07;2.77;;;22.30;1.00;;;;;;5035947;28;20395;-76
2021/09/19 13:13:02;;;;;;;3.17;2.90;;;22.30;1.00;;;;;;5035915;28;20431;-76
2021/09/19 13:15:30;;;;;;;13.30;2.90;;;22.50;1.00;;;;;;5035622;28;21199;-76
2021/09/19 13:18:12;;;;;;;2.37;2.20;;;22.60;1.00;;;;;;5035923;28;20410;-76
2021/09/19 13:20:42;;;;;;;3.00;2.80;;;22.70;1.00;;;;;;5036015;28;20351;-76
2021/09/19 13:23:07;;;;;;;2.87;2.37;;;22.70;1.00;;;;;;5035807;28;20531;-76
2021/09/19 13:25:33;;;;;;;3.10;2.80;;;22.80;1.00;;;;;;5035869;28;20427;-76
2021/09/19 13:28:08;;;;;;;2.03;1.93;;;22.80;1.00;;;;;;5035969;28;20576;-76
2021/09/19 13:30:35;;;;;;;2.67;2.47;;;22.70;1.00;;;;;;5023955;28;20171;-78
2021/09/19 13:33:01;;;;;;;2.37;2.23;;;22.90;1.00;;;;;;5030201;28;20804;-76
2021/09/19 13:35:29;;;;;;;2.80;2.60;;;22.90;1.00;;;;;;5015786;28;20375;-77
2021/09/19 13:37:55;;;;;;;4.40;3.17;;;23.00;1.00;;;;;;5026372;28;20227;-76
2021/09/19 13:40:23;;;;;;;2.80;2.57;;;23.10;1.00;;;;;;5035458;28;20399;-77
2021/09/19 13:43:11;;;;;;;2.70;2.50;;;22.90;1.00;;;;;;5034130;28;20529;-77
2021/09/19 13:46:05;;;;;;;2.10;2.00;;;22.80;1.00;;;;;;5035532;28;20446;-77
2021/09/19 13:48:32;;;;;;;3.00;2.80;;;22.70;1.00;;;;;;5035183;28;20755;-81
2021/09/19 13:51:17;;;;;;;2.70;2.50;;;22.60;1.00;;;;;;5033736;28;20776;-83
2021/09/19 13:57:41;;;;;;;2.50;2.33;;;22.10;1.00;;;;;;5031615;28;20525;-84
2021/09/19 14:03:29;;;;;;;4.27;2.60;;;21.80;1.00;;;;;;5023358;28;20409;-78
2021/09/19 14:06:35;;;;;;;2.60;2.40;;;21.80;1.00;;;;;;5022104;28;20476;-78
2021/09/19 14:09:18;;;;;;;3.03;2.83;;;21.80;1.00;;;;;;5023369;28;20435;-78
2021/09/19 14:11:48;;;;;;;3.00;2.80;;;21.80;1.00;;;;;;5034609;28;20409;-79
2021/09/19 14:14:41;;;;;;;2.40;2.30;;;21.80;1.00;;;;;;5034568;28;20417;-79
2021/09/19 14:17:12;;;;;;;2.43;2.23;;;21.80;1.00;;;;;;5034800;28;20499;-79
2021/09/19 14:23:35;;;;;;;3.20;2.40;;;21.60;1.00;;;;;;5014627;28;20478;-79
2021/09/19 14:26:41;;;;;;;2.87;2.53;;;21.30;1.00;;;;;;5014670;28;20821;-79
2021/09/19 14:29:35;;;;;;;2.50;2.30;;;21.30;1.00;;;;;;5016988;28;20449;-79
2021/09/19 14:32:12;;;;;;;2.90;2.60;;;;;;;;;;5028549;28;20499;-83
2021/09/19 14:34:47;;;;;;;6.90;2.60;;;21.10;1.00;;;;;;5032937;28;20433;-74
2021/09/19 14:37:17;;;;;;;5.10;2.50;;;21.20;1.00;;;;;;5034327;28;20459;-76
2021/09/19 14:39:43;;;;;;;2.80;2.60;;;21.30;1.00;;;;;;5034040;28;20460;-76
2021/09/19 14:42:12;;;;;;;3.23;2.30;;;21.20;1.00;;;;;;5034210;28;20400;-77
2021/09/19 14:44:37;;;;;;;2.83;2.63;;;21.30;1.00;;;;;;5033902;28;20158;-76
2021/09/19 14:47:03;;;;;;;3.50;3.00;;;21.40;1.00;;;;;;5030408;28;20421;-76
2021/09/19 14:49:29;;;;;;;3.67;3.10;;;21.60;1.00;;;;;;5030716;28;20254;-76
2021/09/19 14:51:54;;;;;;;3.23;2.77;;;21.80;1.00;;;;;;5027062;28;20641;-76
2021/09/19 14:54:20;;;;;;;2.93;2.43;;;21.90;1.00;;;;;;5013725;28;20184;-76
2021/09/19 14:56:47;;;;;;;5.13;2.60;;;22.10;1.00;;;;;;5013887;28;20748;-76
2021/09/19 14:59:12;;;;;;;5.20;2.80;;;22.10;1.00;;;;;;5014166;28;20616;-76
2021/09/19 15:01:42;;;;;;;3.00;2.80;;;22.00;1.00;;;;;;5014124;28;20407;-76
2021/09/19 15:04:12;;;;;;;2.93;2.73;;;21.90;1.00;;;;;;5014478;28;20171;-76
2021/09/19 15:06:55;;;;;;;6.40;2.87;;;22.10;1.00;;;;;;5014325;28;20860;-76
2021/09/19 15:09:21;;;;;;;7.50;2.87;;;;;;;;;;5014435;28;20411;-76
2021/09/19 15:11:47;;;;;;;3.00;2.77;;;22.10;1.00;;;;;;5012715;28;20409;-76
2021/09/19 15:14:13;;;;;;;5.20;2.63;;;22.00;1.00;;;;;;5014219;28;20411;-76
2021/09/19 15:16:39;;;;;;;3.33;2.73;;;21.90;1.00;;;;;;5012839;28;20199;-76
2021/09/19 15:19:14;;;;;;;2.60;2.40;;;21.90;1.00;;;;;;5014521;28;20164;-76
2021/09/19 15:21:40;;;;;;;3.33;3.03;;;21.80;1.00;;;;;;5014174;28;20160;-76
2021/09/19 15:24:06;;;;;;;4.80;3.20;;;21.80;1.00;;;;;;5014126;28;20396;-76
2021/09/19 15:26:31;;;;;;;5.10;3.50;;;21.60;1.00;;;;;;5014008;28;20404;-76
2021/09/19 15:29:00;;;;;;;4.43;3.53;;;21.50;1.00;;;;;;5015104;28;20273;-76
2021/09/19 15:31:29;;;;;;;5.10;2.90;;;21.50;1.00;;;;;;5024980;28;20186;-76